METAR Data
IDs: Format: Raw Decoded Include TAF

Data at: 1807 UTC 21 Sep 2018

KDFW 211753Z 17013KT 10SM SCT022 BKN080 BKN110 29/23 A2994 RMK AO2 RAB1654E10 SLP129 TCU DSNT E-SE P0000 60000 T02890228 10289 20250 58004
KDFW 211653Z 17012KT 10SM SCT021 BKN070 OVC110 28/23 A2996 RMK AO2 SLP136 T02780233
KDFW 211553Z 17010KT 10SM SCT018 BKN031 OVC100 27/23 A2996 RMK AO2 SLP136 T02720233
KDFW 211453Z 17010KT 10SM BKN015 OVC022 26/23 A2995 RMK AO2 RAB32E41 SLP134 P0000 60000 T02610233 53009
KDFW 211424Z 16009KT 10SM BKN015 OVC020 26/23 A2995 RMK AO2 T02610233
KDFW 211353Z 16009KT 10SM BKN012 OVC085 26/23 A2994 RMK AO2 SLP130 T02560233
KDFW 211309Z 16006KT 10SM BKN012 BKN090 BKN110 25/23 A2993 RMK AO2 BKN012 V SCT T02500233
KDFW 211253Z 17008KT 10SM SCT012 SCT022 BKN110 25/23 A2993 RMK AO2 SLP127 T02500228
KDFW 211222Z 17009KT 10SM BKN014 OVC021 25/23 A2993 RMK AO2 T02500228
KDFW 211153Z 18009KT 10SM SCT012 OVC018 25/23 A2992 RMK AO2 SLP124 60001 70019 T02500228 10250 20233 53003
KDFW 211053Z 19008KT 10SM OVC011 25/23 A2992 RMK AO2 SLP121 T02500228
KDFW 210953Z 17010KT 10SM BKN013 BKN055 OVC080 25/22 A2992 RMK AO2 SLP121 BKN013 V SCT T02500222
KDFW 210930Z 17010KT 10SM BKN013 OVC075 25/22 A2992 RMK AO2 T02500222
KDFW 210853Z 16006KT 10SM SCT019 OVC080 24/22 A2991 RMK AO2 SLP120 60001 T02440217 56004
KDFW 210753Z 16008KT 10SM FEW028 OVC065 24/21 A2992 RMK AO2 RAB18E48 SLP121 P0001 T02440211
KDFW 210653Z 17006KT 10SM BKN031 OVC060 24/21 A2992 RMK AO2 SLP122 T02440206
KDFW 210553Z 18005KT 10SM BKN060 OVC140 23/21 A2993 RMK AO2 SLP125 60003 T02330206 10250 20233 403220233 58002
KDFW 210453Z 18008KT 10SM FEW100 BKN140 24/21 A2994 RMK AO2 RAE0357 SLP129 P0000 T02390206
KDFW 210353Z 19010KT 10SM -RA FEW050 SCT110 BKN250 24/21 A2994 RMK AO2 RAB48 SLP130 P0000 T02440206
KDFW 210253Z 14007KT 10SM FEW050 SCT120 BKN250 24/21 A2993 RMK AO2 SLP127 60003 T02390211 51015
KDFW 210153Z 12007KT 10SM FEW040 SCT090 BKN120 BKN250 24/21 A2993 RMK AO2 RAB38E50 SLP125 P0000 T02390206
KDFW 210053Z 11004KT 10SM FEW035 SCT120 BKN180 BKN250 23/21 A2990 RMK AO2 LTG DSNT NE AND E RAE11 TSE01E07 SLP118 CB DSNT NE P0003 T02330211
KDFW 210007Z 12008KT 10SM -RA SCT025 BKN040 OVC100 23/21 A2990 RMK AO2 LTG DSNT NE AND E TSE01E07 OCNL LTGIC DSNT N TS MOV N CB DSNT ALQDS P0003 T02330206
KDFW 210000Z 12010G20KT 3SM -TSRA BKN025CB OVC060 24/21 A2990 RMK AO2 LTG DSNT E OCNL LTGIC OHD TS OHD MOV N CB DSNT ALQDS P0003 T02390206
KDFW 202349Z 21012G35KT 1SM R17C/2800VP6000FT +TSRA BKN025CB OVC060 24/21 A2988 RMK AO2 PK WND 18035/2345 WSHFT 2321 LTG DSNT E AND SE RAB43 TSB41 OCNL LTGIC OHD TS OHD MOV N CB DSNT ALQDS P0006
KDFW 202347Z 20020G35KT 1 1/2SM R17C/3500VP6000FT TSRA FEW023 SCT045 BKN060 26/22 A2988 RMK AO2 PK WND 18035/2345 WSHFT 2321 LTG DSNT E AND SE RAB43 TSB41 TS S MOV N CB DSNT ALQDS P0000
KDFW 202341Z COR 20019G25KT 9SM TS SCT045CB BKN150 BKN250 29/21 A2988 RMK AO2 WSHFT 2321 LTG DSNT E AND SE TSB41 OCNL LTGIC S TS S MOV N CB DSNT ALQDS T02890211
KDFW 202253Z 16009KT 10SM FEW050 SCT120 BKN250 31/20 A2987 RMK AO2 LTG DSNT SE-W SLP104 CB DSNT SW-NW MOV N T03060200
KDFW 202153Z 12009G26KT 10SM R17C/2800VP6000FT FEW045 SCT120 BKN250 31/21 A2986 RMK AO2 PK WND 13026/2144 SLP103 CB DSNT S-SW MOV N T03110211
KDFW 202053Z 17014G21KT 10SM FEW045 SCT120 SCT250 32/20 A2988 RMK AO2 PK WND 13027/2040 SLP107 CB DSNT S-SW T03170200 58021
KDFW 201953Z 16012KT 10SM FEW040 SCT180 BKN250 32/22 A2990 RMK AO2 SLP115 T03170217
KDFW 201853Z 15010KT 10SM FEW038 SCT180 BKN250 31/22 A2992 RMK AO2 SLP122 VIRGA NE-SE T03060217 $
KDFW 201753Z 19013KT 10SM SCT039 SCT230 BKN300 31/21 A2994 RMK AO2 SLP129 T03060211 58007
KDFW 201653Z 16013KT 10SM FEW030 FEW150 SCT230 BKN300 30/21 A2997 RMK AO2 SLP139 T03000211
KDFW 201553Z 19010KT 10SM FEW020 FEW150 BKN230 29/22 A2996 RMK AO2 SLP137 T02890217
KDFW 201453Z 16007KT 10SM FEW150 BKN230 27/22 A2996 RMK AO2 SLP135 T02670217 53015
KDFW 201353Z 18006KT 10SM FEW150 BKN230 26/22 A2994 RMK AO2 SLP129 T02560217
KDFW 201253Z 15005KT 9SM SCT150 SCT250 24/21 A2993 RMK AO2 SLP126 T02390211
KDFW 201153Z 19007KT 10SM FEW150 FEW250 24/21 A2991 RMK AO2 SLP120 T02390206 10278 20239 51004
KDFW 201053Z 19008KT 10SM FEW250 24/21 A2991 RMK AO2 SLP118 T02440206
KDFW 200953Z 18007KT 10SM FEW250 25/21 A2991 RMK AO2 SLP118 T02500206
KDFW 200853Z 15005KT 10SM FEW250 26/21 A2990 RMK AO2 SLP116 T02560206 56008
KDFW 200753Z 17005KT 10SM FEW150 FEW250 26/20 A2991 RMK AO2 SLP118 T02610200
KDFW 200653Z 17007KT 10SM FEW150 SCT250 27/20 A2992 RMK AO2 SLP119 T02720200